sensor_id;sensor_type;location;lat;lon;timestamp;pressure;altitude;pressure_sealevel;temperature;humidity
72428;BME280;60419;48.880;18.036;2022-10-16T00:01:21;99373.94;;;16.73;56.33
72428;BME280;60419;48.880;18.036;2022-10-16T00:04:07;99379.50;;;16.77;56.52
72428;BME280;60419;48.880;18.036;2022-10-16T00:06:52;99375.91;;;16.85;55.86
72428;BME280;60419;48.880;18.036;2022-10-16T00:09:37;99372.31;;;16.60;56.18
72428;BME280;60419;48.880;18.036;2022-10-16T00:12:23;99366.00;;;16.35;56.70
72428;BME280;60419;48.880;18.036;2022-10-16T00:15:09;99371.81;;;15.91;57.97
72428;BME280;60419;48.880;18.036;2022-10-16T00:17:54;99375.66;;;16.11;57.57
72428;BME280;60419;48.880;18.036;2022-10-16T00:20:40;99379.06;;;16.08;58.01
72428;BME280;60419;48.880;18.036;2022-10-16T00:23:26;99371.44;;;16.35;56.92
72428;BME280;60419;48.880;18.036;2022-10-16T00:26:13;99379.41;;;16.40;56.77
72428;BME280;60419;48.880;18.036;2022-10-16T00:28:59;99373.28;;;16.43;56.52
72428;BME280;60419;48.880;18.036;2022-10-16T00:31:45;99382.72;;;16.45;56.58
72428;BME280;60419;48.880;18.036;2022-10-16T00:34:30;99372.22;;;16.02;57.66
72428;BME280;60419;48.880;18.036;2022-10-16T00:37:15;99380.53;;;16.39;56.79
72428;BME280;60419;48.880;18.036;2022-10-16T00:40:01;99379.34;;;16.27;57.09
72428;BME280;60419;48.880;18.036;2022-10-16T00:42:46;99387.75;;;16.22;57.10
72428;BME280;60419;48.880;18.036;2022-10-16T00:45:31;99387.69;;;16.43;56.72
72428;BME280;60419;48.880;18.036;2022-10-16T00:48:17;99395.50;;;16.33;56.68
72428;BME280;60419;48.880;18.036;2022-10-16T00:51:04;99396.34;;;15.32;59.52
72428;BME280;60419;48.880;18.036;2022-10-16T00:53:51;99392.09;;;16.02;57.67
72428;BME280;60419;48.880;18.036;2022-10-16T00:56:37;99388.28;;;16.49;56.46
72428;BME280;60419;48.880;18.036;2022-10-16T00:59:31;99400.19;;;16.78;55.72
72428;BME280;60419;48.880;18.036;2022-10-16T01:02:17;99390.44;;;16.43;56.31
72428;BME280;60419;48.880;18.036;2022-10-16T01:05:03;99398.00;;;16.04;57.31
72428;BME280;60419;48.880;18.036;2022-10-16T01:07:57;99388.38;;;16.40;56.83
72428;BME280;60419;48.880;18.036;2022-10-16T01:11:07;99397.38;;;16.20;56.89
72428;BME280;60419;48.880;18.036;2022-10-16T01:13:58;99390.38;;;15.98;56.96
72428;BME280;60419;48.880;18.036;2022-10-16T01:16:53;99385.72;;;15.98;57.36
72428;BME280;60419;48.880;18.036;2022-10-16T01:23:04;99376.50;;;15.61;58.66
72428;BME280;60419;48.880;18.036;2022-10-16T01:29:12;99379.59;;;15.80;58.05
72428;BME280;60419;48.880;18.036;2022-10-16T01:32:07;99383.47;;;15.71;58.33
72428;BME280;60419;48.880;18.036;2022-10-16T01:35:02;99380.84;;;16.04;57.12
72428;BME280;60419;48.880;18.036;2022-10-16T01:38:06;99385.16;;;15.84;57.68
72428;BME280;60419;48.880;18.036;2022-10-16T01:41:00;99385.84;;;16.02;57.36
72428;BME280;60419;48.880;18.036;2022-10-16T01:43:49;99388.69;;;16.39;56.25
72428;BME280;60419;48.880;18.036;2022-10-16T01:46:41;99395.16;;;16.67;55.47
72428;BME280;60419;48.880;18.036;2022-10-16T01:49:31;99406.19;;;16.71;55.12
72428;BME280;60419;48.880;18.036;2022-10-16T01:52:21;99402.22;;;16.35;56.54
72428;BME280;60419;48.880;18.036;2022-10-16T01:55:10;99399.41;;;16.44;56.09
72428;BME280;60419;48.880;18.036;2022-10-16T01:57:59;99389.97;;;16.08;57.25
72428;BME280;60419;48.880;18.036;2022-10-16T02:00:47;99398.19;;;15.99;57.68
72428;BME280;60419;48.880;18.036;2022-10-16T02:03:34;99397.06;;;15.20;59.90
72428;BME280;60419;48.880;18.036;2022-10-16T02:06:21;99395.00;;;15.47;59.33
72428;BME280;60419;48.880;18.036;2022-10-16T02:09:08;99402.34;;;15.76;58.58
72428;BME280;60419;48.880;18.036;2022-10-16T02:11:54;99402.31;;;15.25;59.90
72428;BME280;60419;48.880;18.036;2022-10-16T02:14:42;99407.91;;;15.29;59.76
72428;BME280;60419;48.880;18.036;2022-10-16T02:17:27;99402.09;;;15.01;60.54
72428;BME280;60419;48.880;18.036;2022-10-16T02:20:13;99416.25;;;14.68;63.26
72428;BME280;60419;48.880;18.036;2022-10-16T02:23:00;99412.16;;;14.18;66.76
72428;BME280;60419;48.880;18.036;2022-10-16T02:25:47;99428.16;;;14.28;67.14
72428;BME280;60419;48.880;18.036;2022-10-16T02:28:43;99435.50;;;14.28;67.59
72428;BME280;60419;48.880;18.036;2022-10-16T02:31:32;99436.75;;;14.65;65.78
72428;BME280;60419;48.880;18.036;2022-10-16T02:34:21;99434.00;;;14.91;64.97
72428;BME280;60419;48.880;18.036;2022-10-16T02:37:07;99431.81;;;14.50;66.36
72428;BME280;60419;48.880;18.036;2022-10-16T02:39:55;99432.72;;;14.89;64.97
72428;BME280;60419;48.880;18.036;2022-10-16T02:42:41;99435.22;;;15.03;64.56
72428;BME280;60419;48.880;18.036;2022-10-16T02:45:26;99433.28;;;15.03;64.38
72428;BME280;60419;48.880;18.036;2022-10-16T02:48:11;99447.09;;;14.98;64.70
72428;BME280;60419;48.880;18.036;2022-10-16T02:50:57;99450.97;;;14.80;65.14
72428;BME280;60419;48.880;18.036;2022-10-16T02:53:42;99452.22;;;14.82;64.94
72428;BME280;60419;48.880;18.036;2022-10-16T02:56:28;99447.63;;;14.57;65.83
72428;BME280;60419;48.880;18.036;2022-10-16T02:59:15;99465.69;;;14.52;66.39
72428;BME280;60419;48.880;18.036;2022-10-16T03:02:00;99462.94;;;14.87;65.44
72428;BME280;60419;48.880;18.036;2022-10-16T03:04:46;99468.56;;;14.91;65.17
72428;BME280;60419;48.880;18.036;2022-10-16T03:07:31;99464.03;;;14.95;64.64
72428;BME280;60419;48.880;18.036;2022-10-16T03:10:17;99463.56;;;15.02;64.87
72428;BME280;60419;48.880;18.036;2022-10-16T03:13:02;99460.66;;;15.07;64.34
72428;BME280;60419;48.880;18.036;2022-10-16T03:15:48;99460.00;;;15.10;64.42
72428;BME280;60419;48.880;18.036;2022-10-16T03:18:33;99447.47;;;14.01;67.48
72428;BME280;60419;48.880;18.036;2022-10-16T03:21:19;99461.41;;;13.11;71.41
72428;BME280;60419;48.880;18.036;2022-10-16T03:24:04;99452.09;;;13.43;70.73
72428;BME280;60419;48.880;18.036;2022-10-16T03:26:50;99457.69;;;14.04;68.58
72428;BME280;60419;48.880;18.036;2022-10-16T03:29:35;99451.00;;;14.45;66.78
72428;BME280;60419;48.880;18.036;2022-10-16T03:32:21;99449.22;;;14.58;66.07
72428;BME280;60419;48.880;18.036;2022-10-16T03:35:07;99455.13;;;14.68;65.35
72428;BME280;60419;48.880;18.036;2022-10-16T03:37:52;99461.69;;;14.67;64.35
72428;BME280;60419;48.880;18.036;2022-10-16T03:40:38;99459.47;;;14.52;65.07
72428;BME280;60419;48.880;18.036;2022-10-16T03:43:23;99447.63;;;14.74;63.97
72428;BME280;60419;48.880;18.036;2022-10-16T03:46:08;99451.16;;;14.57;65.54
72428;BME280;60419;48.880;18.036;2022-10-16T03:48:54;99454.53;;;14.28;67.11
72428;BME280;60419;48.880;18.036;2022-10-16T03:51:39;99443.63;;;14.45;65.17
72428;BME280;60419;48.880;18.036;2022-10-16T03:54:24;99458.47;;;14.91;64.42
72428;BME280;60419;48.880;18.036;2022-10-16T03:57:10;99462.31;;;14.82;64.83
72428;BME280;60419;48.880;18.036;2022-10-16T03:59:55;99468.81;;;15.07;63.22
72428;BME280;60419;48.880;18.036;2022-10-16T04:02:40;99475.41;;;13.44;69.74
72428;BME280;60419;48.880;18.036;2022-10-16T04:05:26;99471.41;;;13.41;69.70
72428;BME280;60419;48.880;18.036;2022-10-16T04:08:11;99481.66;;;13.93;67.27
72428;BME280;60419;48.880;18.036;2022-10-16T04:10:57;99472.09;;;14.13;67.25
72428;BME280;60419;48.880;18.036;2022-10-16T04:13:42;99469.66;;;14.90;64.76
72428;BME280;60419;48.880;18.036;2022-10-16T04:16:28;99463.94;;;14.57;64.94
72428;BME280;60419;48.880;18.036;2022-10-16T04:19:14;99468.06;;;14.89;63.25
72428;BME280;60419;48.880;18.036;2022-10-16T04:21:59;99469.31;;;15.09;62.69
72428;BME280;60419;48.880;18.036;2022-10-16T04:24:44;99472.53;;;14.93;63.01
72428;BME280;60419;48.880;18.036;2022-10-16T04:27:30;99462.63;;;14.89;62.85
72428;BME280;60419;48.880;18.036;2022-10-16T04:30:16;99457.19;;;15.36;61.24
72428;BME280;60419;48.880;18.036;2022-10-16T04:33:01;99460.50;;;15.50;60.62
72428;BME280;60419;48.880;18.036;2022-10-16T04:35:47;99465.56;;;15.22;61.03
72428;BME280;60419;48.880;18.036;2022-10-16T04:38:32;99474.16;;;14.86;62.74
72428;BME280;60419;48.880;18.036;2022-10-16T04:41:17;99479.34;;;15.17;62.15
72428;BME280;60419;48.880;18.036;2022-10-16T04:44:03;99475.50;;;15.27;61.58
72428;BME280;60419;48.880;18.036;2022-10-16T04:46:50;99478.25;;;15.01;62.45
72428;BME280;60419;48.880;18.036;2022-10-16T04:49:36;99477.97;;;14.85;63.10
72428;BME280;60419;48.880;18.036;2022-10-16T04:52:21;99481.50;;;14.68;64.15
72428;BME280;60419;48.880;18.036;2022-10-16T04:55:09;99489.16;;;15.01;63.50
72428;BME280;60419;48.880;18.036;2022-10-16T04:57:55;99490.03;;;14.75;64.59
72428;BME280;60419;48.880;18.036;2022-10-16T05:00:40;99496.69;;;15.04;63.98
72428;BME280;60419;48.880;18.036;2022-10-16T05:03:25;99499.63;;;14.72;64.80
72428;BME280;60419;48.880;18.036;2022-10-16T05:06:11;99505.19;;;14.24;67.29
72428;BME280;60419;48.880;18.036;2022-10-16T05:08:56;99514.31;;;13.62;69.30
72428;BME280;60419;48.880;18.036;2022-10-16T05:11:41;99519.50;;;13.90;68.81
72428;BME280;60419;48.880;18.036;2022-10-16T05:14:27;99521.84;;;13.74;69.18
72428;BME280;60419;48.880;18.036;2022-10-16T05:17:12;99528.13;;;13.52;70.08
72428;BME280;60419;48.880;18.036;2022-10-16T05:19:57;99533.97;;;13.68;69.43
72428;BME280;60419;48.880;18.036;2022-10-16T05:22:43;99530.56;;;14.02;68.65
72428;BME280;60419;48.880;18.036;2022-10-16T05:25:28;99524.84;;;14.29;67.27
72428;BME280;60419;48.880;18.036;2022-10-16T05:28:13;99530.28;;;14.29;67.27
72428;BME280;60419;48.880;18.036;2022-10-16T05:30:59;99522.59;;;14.66;66.64
72428;BME280;60419;48.880;18.036;2022-10-16T05:33:44;99520.84;;;14.96;65.42
72428;BME280;60419;48.880;18.036;2022-10-16T05:36:30;99526.25;;;15.05;64.41
72428;BME280;60419;48.880;18.036;2022-10-16T05:39:16;99536.19;;;15.10;64.49
72428;BME280;60419;48.880;18.036;2022-10-16T05:42:01;99532.88;;;14.95;64.90
72428;BME280;60419;48.880;18.036;2022-10-16T05:44:46;99533.31;;;15.06;64.32
72428;BME280;60419;48.880;18.036;2022-10-16T05:47:32;99537.91;;;15.23;63.67
72428;BME280;60419;48.880;18.036;2022-10-16T05:50:17;99544.59;;;15.34;63.15
72428;BME280;60419;48.880;18.036;2022-10-16T05:53:02;99548.09;;;15.44;63.00
72428;BME280;60419;48.880;18.036;2022-10-16T05:55:52;99552.34;;;15.15;64.06
72428;BME280;60419;48.880;18.036;2022-10-16T05:58:38;99557.59;;;15.37;63.38
72428;BME280;60419;48.880;18.036;2022-10-16T06:01:25;99558.47;;;15.59;62.97
72428;BME280;60419;48.880;18.036;2022-10-16T06:04:11;99563.56;;;15.69;62.63
72428;BME280;60419;48.880;18.036;2022-10-16T06:06:59;99561.97;;;15.59;62.97
72428;BME280;60419;48.880;18.036;2022-10-16T06:09:50;99563.59;;;14.79;66.23
72428;BME280;60419;48.880;18.036;2022-10-16T06:12:36;99572.00;;;15.21;64.33
72428;BME280;60419;48.880;18.036;2022-10-16T06:15:21;99568.56;;;15.50;62.93
72428;BME280;60419;48.880;18.036;2022-10-16T06:18:10;99579.44;;;15.58;62.70
72428;BME280;60419;48.880;18.036;2022-10-16T06:20:56;99589.25;;;15.42;61.57
72428;BME280;60419;48.880;18.036;2022-10-16T06:23:42;99590.69;;;15.39;63.41
72428;BME280;60419;48.880;18.036;2022-10-16T06:26:29;99587.63;;;15.58;62.27
72428;BME280;60419;48.880;18.036;2022-10-16T06:29:15;99592.78;;;15.43;62.90
72428;BME280;60419;48.880;18.036;2022-10-16T06:32:00;99602.06;;;14.46;64.29
72428;BME280;60419;48.880;18.036;2022-10-16T06:34:46;99610.75;;;14.57;64.80
72428;BME280;60419;48.880;18.036;2022-10-16T06:37:31;99612.38;;;15.01;64.23
72428;BME280;60419;48.880;18.036;2022-10-16T06:40:17;99617.56;;;15.50;63.57
72428;BME280;60419;48.880;18.036;2022-10-16T06:43:02;99618.69;;;15.57;62.82
72428;BME280;60419;48.880;18.036;2022-10-16T06:45:54;99625.34;;;15.22;64.40
72428;BME280;60419;48.880;18.036;2022-10-16T06:48:41;99616.03;;;15.40;61.31
72428;BME280;60419;48.880;18.036;2022-10-16T06:51:26;99625.91;;;15.53;61.71
72428;BME280;60419;48.880;18.036;2022-10-16T06:54:12;99628.22;;;15.90;66.70
72428;BME280;60419;48.880;18.036;2022-10-16T06:56:57;99626.41;;;16.02;62.07
72428;BME280;60419;48.880;18.036;2022-10-16T06:59:45;99625.59;;;15.46;62.26
72428;BME280;60419;48.880;18.036;2022-10-16T07:02:30;99624.41;;;15.82;61.45
72428;BME280;60419;48.880;18.036;2022-10-16T07:05:15;99634.66;;;15.68;61.71
72428;BME280;60419;48.880;18.036;2022-10-16T07:08:01;99634.00;;;15.71;61.67
72428;BME280;60419;48.880;18.036;2022-10-16T07:10:47;99634.72;;;16.06;60.19
72428;BME280;60419;48.880;18.036;2022-10-16T07:13:36;99631.78;;;15.81;61.35
72428;BME280;60419;48.880;18.036;2022-10-16T07:16:24;99635.78;;;15.75;60.98
72428;BME280;60419;48.880;18.036;2022-10-16T07:19:10;99644.59;;;15.72;60.79
72428;BME280;60419;48.880;18.036;2022-10-16T07:21:57;99650.78;;;15.99;74.36
72428;BME280;60419;48.880;18.036;2022-10-16T07:24:42;99653.63;;;16.11;60.46
72428;BME280;60419;48.880;18.036;2022-10-16T07:27:29;99660.16;;;15.72;61.08
72428;BME280;60419;48.880;18.036;2022-10-16T07:30:14;99657.31;;;15.42;62.77
72428;BME280;60419;48.880;18.036;2022-10-16T07:33:00;99650.75;;;15.08;63.38
72428;BME280;60419;48.880;18.036;2022-10-16T07:35:51;99661.00;;;15.03;63.34
72428;BME280;60419;48.880;18.036;2022-10-16T07:38:37;99660.22;;;15.02;63.21
72428;BME280;60419;48.880;18.036;2022-10-16T07:41:23;99660.06;;;15.16;63.22
72428;BME280;60419;48.880;18.036;2022-10-16T07:44:08;99661.66;;;15.17;63.52
72428;BME280;60419;48.880;18.036;2022-10-16T07:46:54;99654.75;;;15.28;62.64
72428;BME280;60419;48.880;18.036;2022-10-16T07:49:39;99658.56;;;15.62;62.81
72428;BME280;60419;48.880;18.036;2022-10-16T07:52:25;99649.94;;;16.07;60.46
72428;BME280;60419;48.880;18.036;2022-10-16T07:55:10;99658.59;;;16.09;60.24
72428;BME280;60419;48.880;18.036;2022-10-16T07:57:55;99667.13;;;15.99;60.88
72428;BME280;60419;48.880;18.036;2022-10-16T08:00:41;99656.94;;;15.87;61.24
72428;BME280;60419;48.880;18.036;2022-10-16T08:03:26;99670.50;;;15.96;60.97
72428;BME280;60419;48.880;18.036;2022-10-16T08:06:11;99670.63;;;16.08;59.74
72428;BME280;60419;48.880;18.036;2022-10-16T08:08:57;99674.59;;;15.46;61.70
72428;BME280;60419;48.880;18.036;2022-10-16T08:11:43;99701.75;;;14.68;64.34
72428;BME280;60419;48.880;18.036;2022-10-16T08:14:29;99709.91;;;14.68;63.85
72428;BME280;60419;48.880;18.036;2022-10-16T08:17:15;99708.25;;;15.07;63.29
72428;BME280;60419;48.880;18.036;2022-10-16T08:20:00;99707.59;;;15.53;63.77
72428;BME280;60419;48.880;18.036;2022-10-16T08:22:46;99701.53;;;16.12;60.49
72428;BME280;60419;48.880;18.036;2022-10-16T08:25:34;99706.13;;;14.95;62.60
72428;BME280;60419;48.880;18.036;2022-10-16T08:28:21;99714.63;;;15.11;63.38
72428;BME280;60419;48.880;18.036;2022-10-16T08:31:08;99711.28;;;15.14;63.83
72428;BME280;60419;48.880;18.036;2022-10-16T08:33:53;99714.81;;;15.14;62.81
72428;BME280;60419;48.880;18.036;2022-10-16T08:36:39;99717.38;;;15.19;63.08
72428;BME280;60419;48.880;18.036;2022-10-16T08:39:24;99721.66;;;15.55;62.77
72428;BME280;60419;48.880;18.036;2022-10-16T08:48:43;99705.59;;;16.44;60.34
72428;BME280;60419;48.880;18.036;2022-10-16T08:51:32;99674.91;;;16.18;59.89
72428;BME280;60419;48.880;18.036;2022-10-16T08:54:37;99701.25;;;16.43;60.38
72428;BME280;60419;48.880;18.036;2022-10-16T08:57:27;99696.97;;;15.87;61.46
72428;BME280;60419;48.880;18.036;2022-10-16T09:00:13;99690.84;;;15.98;60.41
72428;BME280;60419;48.880;18.036;2022-10-16T09:03:10;99697.34;;;16.15;60.54
72428;BME280;60419;48.880;18.036;2022-10-16T09:06:22;99697.03;;;15.43;62.22
72428;BME280;60419;48.880;18.036;2022-10-16T09:15:43;99698.00;;;15.30;62.08
72428;BME280;60419;48.880;18.036;2022-10-16T09:18:51;99697.19;;;15.47;61.90
72428;BME280;60419;48.880;18.036;2022-10-16T09:21:44;99710.78;;;15.64;65.77
72428;BME280;60419;48.880;18.036;2022-10-16T09:24:30;99703.09;;;16.90;58.01
72428;BME280;60419;48.880;18.036;2022-10-16T09:27:15;99723.66;;;17.50;56.67
72428;BME280;60419;48.880;18.036;2022-10-16T09:30:01;99717.22;;;17.34;56.77
72428;BME280;60419;48.880;18.036;2022-10-16T09:32:52;99729.16;;;17.84;55.72
72428;BME280;60419;48.880;18.036;2022-10-16T09:35:39;99726.25;;;16.84;57.18
72428;BME280;60419;48.880;18.036;2022-10-16T09:38:33;99713.53;;;17.09;56.94
72428;BME280;60419;48.880;18.036;2022-10-16T09:41:21;99715.94;;;17.10;57.18
72428;BME280;60419;48.880;18.036;2022-10-16T09:44:26;99716.03;;;17.56;56.69
72428;BME280;60419;48.880;18.036;2022-10-16T09:47:16;99728.38;;;17.62;56.52
72428;BME280;60419;48.880;18.036;2022-10-16T09:50:26;99722.63;;;17.76;56.23
72428;BME280;60419;48.880;18.036;2022-10-16T09:53:13;99724.91;;;18.32;55.88
72428;BME280;60419;48.880;18.036;2022-10-16T09:55:59;99721.84;;;18.58;54.22
72428;BME280;60419;48.880;18.036;2022-10-16T09:58:50;99723.09;;;18.60;53.65
72428;BME280;60419;48.880;18.036;2022-10-16T10:01:45;99735.88;;;18.56;53.24
72428;BME280;60419;48.880;18.036;2022-10-16T10:04:40;99734.13;;;17.27;56.54
72428;BME280;60419;48.880;18.036;2022-10-16T10:07:31;99718.72;;;16.81;57.63
72428;BME280;60419;48.880;18.036;2022-10-16T10:10:22;99742.06;;;16.61;58.76
72428;BME280;60419;48.880;18.036;2022-10-16T10:13:22;99744.91;;;16.73;59.02
72428;BME280;60419;48.880;18.036;2022-10-16T10:16:09;99739.69;;;16.89;58.12
72428;BME280;60419;48.880;18.036;2022-10-16T10:18:59;99746.34;;;16.79;57.83
72428;BME280;60419;48.880;18.036;2022-10-16T10:21:44;99748.97;;;16.97;58.39
72428;BME280;60419;48.880;18.036;2022-10-16T10:24:30;99743.91;;;17.49;56.81
72428;BME280;60419;48.880;18.036;2022-10-16T10:27:16;99743.53;;;17.39;56.93
72428;BME280;60419;48.880;18.036;2022-10-16T10:38:57;99730.59;;;18.14;55.19
72428;BME280;60419;48.880;18.036;2022-10-16T10:50:47;99747.38;;;18.50;54.61
72428;BME280;60419;48.880;18.036;2022-10-16T11:08:22;99740.53;;;17.86;55.52
72428;BME280;60419;48.880;18.036;2022-10-16T11:11:24;99736.53;;;18.16;55.02
72428;BME280;60419;48.880;18.036;2022-10-16T11:14:30;99740.66;;;17.89;55.49
72428;BME280;60419;48.880;18.036;2022-10-16T11:17:24;99737.28;;;17.71;55.64
72428;BME280;60419;48.880;18.036;2022-10-16T11:20:16;99738.06;;;17.93;54.78
72428;BME280;60419;48.880;18.036;2022-10-16T11:23:25;99736.31;;;18.21;54.20
72428;BME280;60419;48.880;18.036;2022-10-16T11:26:17;99732.09;;;18.36;53.54
72428;BME280;60419;48.880;18.036;2022-10-16T11:29:10;99737.09;;;18.46;53.90
72428;BME280;60419;48.880;18.036;2022-10-16T11:32:11;99737.69;;;18.52;54.12
72428;BME280;60419;48.880;18.036;2022-10-16T11:35:07;99733.13;;;18.56;53.82
72428;BME280;60419;48.880;18.036;2022-10-16T11:37:57;99729.84;;;18.87;53.16
72428;BME280;60419;48.880;18.036;2022-10-16T11:40:47;99720.91;;;19.03;52.70
72428;BME280;60419;48.880;18.036;2022-10-16T11:43:41;99731.22;;;18.81;53.18
72428;BME280;60419;48.880;18.036;2022-10-16T11:46:30;99728.78;;;18.31;54.75
72428;BME280;60419;48.880;18.036;2022-10-16T11:49:22;99725.13;;;18.39;54.92
72428;BME280;60419;48.880;18.036;2022-10-16T11:55:15;99729.06;;;19.15;53.13
72428;BME280;60419;48.880;18.036;2022-10-16T11:58:15;99726.53;;;19.35;52.35
72428;BME280;60419;48.880;18.036;2022-10-16T12:01:28;99727.72;;;19.21;52.90
72428;BME280;60419;48.880;18.036;2022-10-16T12:04:39;99724.59;;;18.95;52.64
72428;BME280;60419;48.880;18.036;2022-10-16T12:07:35;99727.19;;;19.03;53.13
72428;BME280;60419;48.880;18.036;2022-10-16T12:10:26;99723.00;;;18.81;53.42
72428;BME280;60419;48.880;18.036;2022-10-16T12:19:15;99702.91;;;19.30;52.46
72428;BME280;60419;48.880;18.036;2022-10-16T12:22:02;99707.66;;;19.45;52.90
72428;BME280;60419;48.880;18.036;2022-10-16T12:24:51;99708.63;;;19.65;51.56
72428;BME280;60419;48.880;18.036;2022-10-16T12:27:36;99714.75;;;19.06;52.88
72428;BME280;60419;48.880;18.036;2022-10-16T12:30:24;99709.78;;;19.24;51.93
72428;BME280;60419;48.880;18.036;2022-10-16T12:33:21;99698.09;;;19.39;51.43
72428;BME280;60419;48.880;18.036;2022-10-16T12:36:14;99708.44;;;19.58;52.28
72428;BME280;60419;48.880;18.036;2022-10-16T12:39:01;99713.91;;;19.58;51.02
72428;BME280;60419;48.880;18.036;2022-10-16T12:42:04;99709.53;;;19.85;50.97
72428;BME280;60419;48.880;18.036;2022-10-16T12:44:49;99713.66;;;19.63;51.23
72428;BME280;60419;48.880;18.036;2022-10-16T12:47:46;99720.72;;;19.36;52.07
72428;BME280;60419;48.880;18.036;2022-10-16T12:53:24;99706.16;;;19.48;51.68
72428;BME280;60419;48.880;18.036;2022-10-16T12:56:24;99718.53;;;19.42;51.57
72428;BME280;60419;48.880;18.036;2022-10-16T13:18:36;99711.34;;;20.09;50.48
72428;BME280;60419;48.880;18.036;2022-10-16T13:24:58;99708.34;;;20.14;50.12
72428;BME280;60419;48.880;18.036;2022-10-16T13:30:33;99706.97;;;20.88;48.48
72428;BME280;60419;48.880;18.036;2022-10-16T13:36:33;99713.41;;;20.44;49.07
72428;BME280;60419;48.880;18.036;2022-10-16T13:39:29;99716.41;;;20.55;49.28
72428;BME280;60419;48.880;18.036;2022-10-16T13:45:18;99716.16;;;20.95;47.37
72428;BME280;60419;48.880;18.036;2022-10-16T13:48:06;99709.25;;;21.21;46.83
72428;BME280;60419;48.880;18.036;2022-10-16T13:51:21;99720.69;;;21.42;46.33
72428;BME280;60419;48.880;18.036;2022-10-16T13:54:09;99715.97;;;21.23;47.08
72428;BME280;60419;48.880;18.036;2022-10-16T13:56:56;99726.97;;;21.23;47.09
72428;BME280;60419;48.880;18.036;2022-10-16T13:59:41;99713.38;;;20.60;48.40
72428;BME280;60419;48.880;18.036;2022-10-16T14:02:31;99712.06;;;20.22;49.14
72428;BME280;60419;48.880;18.036;2022-10-16T14:05:20;99723.59;;;20.44;48.36
72428;BME280;60419;48.880;18.036;2022-10-16T14:08:05;99725.78;;;20.22;49.26
72428;BME280;60419;48.880;18.036;2022-10-16T14:10:56;99724.69;;;20.74;47.68
72428;BME280;60419;48.880;18.036;2022-10-16T14:13:45;99725.44;;;20.39;49.46
72428;BME280;60419;48.880;18.036;2022-10-16T14:16:32;99724.06;;;20.02;49.47
72428;BME280;60419;48.880;18.036;2022-10-16T14:19:19;99736.94;;;20.45;48.81
72428;BME280;60419;48.880;18.036;2022-10-16T14:30:59;99740.81;;;20.60;48.58
72428;BME280;60419;48.880;18.036;2022-10-16T14:33:45;99743.75;;;20.51;48.23
72428;BME280;60419;48.880;18.036;2022-10-16T14:36:30;99733.50;;;20.48;48.31
72428;BME280;60419;48.880;18.036;2022-10-16T14:39:19;99743.59;;;19.84;50.18
72428;BME280;60419;48.880;18.036;2022-10-16T14:42:14;99745.66;;;20.19;49.08
72428;BME280;60419;48.880;18.036;2022-10-16T14:45:01;99756.06;;;19.82;49.80
72428;BME280;60419;48.880;18.036;2022-10-16T14:47:59;99742.53;;;20.49;48.14
72428;BME280;60419;48.880;18.036;2022-10-16T14:50:45;99732.13;;;20.26;48.48
72428;BME280;60419;48.880;18.036;2022-10-16T14:53:31;99759.97;;;20.40;48.07
72428;BME280;60419;48.880;18.036;2022-10-16T14:56:19;99763.22;;;20.78;47.38
72428;BME280;60419;48.880;18.036;2022-10-16T14:59:05;99747.13;;;21.31;45.89
72428;BME280;60419;48.880;18.036;2022-10-16T15:01:50;99730.22;;;20.94;46.45
72428;BME280;60419;48.880;18.036;2022-10-16T15:04:35;99751.34;;;21.44;46.10
72428;BME280;60419;48.880;18.036;2022-10-16T15:07:21;99758.34;;;21.42;45.55
72428;BME280;60419;48.880;18.036;2022-10-16T15:10:06;99767.06;;;20.13;49.06
72428;BME280;60419;48.880;18.036;2022-10-16T15:12:52;99765.94;;;20.78;47.12
72428;BME280;60419;48.880;18.036;2022-10-16T15:15:44;99765.47;;;20.92;46.89
72428;BME280;60419;48.880;18.036;2022-10-16T15:18:29;99752.31;;;21.17;46.08
72428;BME280;60419;48.880;18.036;2022-10-16T15:21:30;99761.34;;;21.53;45.43
72428;BME280;60419;48.880;18.036;2022-10-16T15:24:16;99768.69;;;21.87;44.78
72428;BME280;60419;48.880;18.036;2022-10-16T15:27:01;99770.41;;;21.96;44.40
72428;BME280;60419;48.880;18.036;2022-10-16T15:29:47;99774.56;;;21.12;45.89
72428;BME280;60419;48.880;18.036;2022-10-16T15:32:32;99776.00;;;21.05;45.46
72428;BME280;60419;48.880;18.036;2022-10-16T15:35:17;99781.50;;;20.90;45.97
72428;BME280;60419;48.880;18.036;2022-10-16T15:38:03;99788.91;;;19.94;48.99
72428;BME280;60419;48.880;18.036;2022-10-16T15:40:49;99789.38;;;19.56;49.71
72428;BME280;60419;48.880;18.036;2022-10-16T15:43:34;99789.84;;;19.33;50.22
72428;BME280;60419;48.880;18.036;2022-10-16T15:46:22;99799.03;;;18.63;52.41
72428;BME280;60419;48.880;18.036;2022-10-16T15:49:08;99801.56;;;18.81;51.86
72428;BME280;60419;48.880;18.036;2022-10-16T15:51:54;99797.88;;;18.64;52.23
72428;BME280;60419;48.880;18.036;2022-10-16T15:54:40;99808.41;;;18.17;53.81
72428;BME280;60419;48.880;18.036;2022-10-16T15:57:27;99788.63;;;18.44;52.50
72428;BME280;60419;48.880;18.036;2022-10-16T16:00:18;99801.63;;;18.60;52.36
72428;BME280;60419;48.880;18.036;2022-10-16T16:03:05;99807.84;;;18.23;53.31
72428;BME280;60419;48.880;18.036;2022-10-16T16:05:51;99806.75;;;18.49;52.79
72428;BME280;60419;48.880;18.036;2022-10-16T16:08:36;99811.31;;;18.57;52.42
72428;BME280;60419;48.880;18.036;2022-10-16T16:11:22;99821.06;;;18.79;52.17
72428;BME280;60419;48.880;18.036;2022-10-16T16:14:13;99813.13;;;18.41;53.50
72428;BME280;60419;48.880;18.036;2022-10-16T16:16:58;99814.72;;;18.42;53.71
72428;BME280;60419;48.880;18.036;2022-10-16T16:19:45;99820.50;;;17.74;55.54
72428;BME280;60419;48.880;18.036;2022-10-16T16:22:31;99823.38;;;17.35;56.47
72428;BME280;60419;48.880;18.036;2022-10-16T16:25:16;99827.44;;;17.50;56.44